Forside
METAR-TAF:

METAR-TAF

Lufthavne :

Kunming, Kina

Breddekreds: 25-01N, længdekreds: 102-41E, højde: 1892 m

Aktuelle vejr

Denne rapport blev lavet for 17 minutter siden, kl. 14:00 UTC
Vind 10 kt fra sydvest
Temperatur 11°C
Fugtighed 76%
Tryk 1022 hPa
Sigt 10 km eller mere
Spredte skyer i en højde af 2300 ft
Overskyet i en højde af 4000 ft

METAR: ZPPP 191400Z 22005MPS 9999 SCT023 OVC040 11/07 Q1022 NOSIG

Tid: 22:17 (14:17 UTC)

Vejrudsigter

Denne rapport blev lavet for 7 timer og 11 minutter siden, kl. 07:06 UTC
Foreløbig gælder fra 19 på 12 UTC til 20 på 12 UTC
Vind 12 kt fra sydvest
Sigt 10 km eller mere
Spredte skyer i en højde af 2000 ft
Brudte skyer i en højde af 3300 ft

TAF: ZPPP 190706Z 1912/2012 22006MPS 9999 SCT020 BKN033 TX16/2008Z TN08/1923Z

Vejrobservationer og prognoser fra mere end 4000 lufthavne (METAR og TAF).

De gule og røde prikker repræsenterer de meteorologiske stationer.

Flyt musen over at se navnet på stationen.

Så klik over at se vejr observationer og prognoser.

At skifte det kort: Klik på de grønne knapper med et sort kors for at zoome ind; på den grønne knap med en bindestreg for at zoome ud; eller på de grønne pile for tilstødende kort.


METAR-TAF: